allwebdevhelp.com alexa rank chart, allwebdevhelp.com alexa rank daily changes

allwebdevhelp.com alexa rank chart, allwebdevhelp.com alexa rank daily changes

allwebdevhelp.com
Actual rank:
729 614

RANK HISTORY

Date Rank Diff
2016/12/02 729 614 -9 854
2016/12/01 739 468 -94 255
2016/11/30 833 723 +21 845
2016/11/29 811 878 +21 708
2016/11/28 790 170 +34 927
2016/11/27 755 243 +66 678
2016/11/26 688 565 +15 176
2016/11/25 673 389 +39 835
2016/11/24 633 554 -6 386
2016/11/23 639 940 +159 264
2016/11/19 480 676 -4 978
2016/11/18 485 654 +1 550
2016/11/17 484 104 -4 965
2016/11/16 489 069 +15 080
2016/11/15 473 989 +11 115
2016/11/14 462 874 -15 697
2016/11/13 478 571 +11 501
2016/11/12 467 070 +5 567
2016/11/11 461 503 -9 620
2016/11/10 471 123 +545
2016/11/09 470 578 -9 627
2016/11/08 480 205 +2 401
2016/11/07 477 804 +4 056
2016/11/06 473 748 +7 302
2016/11/05 466 446 +26 890
2016/11/04 439 556 +11 061
2016/11/03 428 495 -14 127
2016/11/02 442 622 +11 050
2016/11/01 431 572 +7 656
2016/10/31 423 916 +12 821
2016/10/30 411 095 +2 449
2016/10/29 408 646 -8 127
2016/10/28 416 773 -11 053
2016/10/27 427 826 -20 680
2016/10/26 448 506 -10 914
2016/10/25 459 420 -3 657
2016/10/24 463 077 -10 334
2016/10/23 473 411 +5 978
2016/10/22 467 433 -46 914
2016/10/21 514 347 -48 583
2016/10/20 562 930 +11 216
2016/10/19 551 714 -7 260
2016/10/18 558 974 +1 606
2016/10/17 557 368 +6 691
2016/10/16 550 677 +54 094
2016/10/15 496 583 -41 343
2016/10/14 537 926 -15 414
2016/10/13 553 340 +11 683
2016/10/12 541 657 -1 620
2016/10/11 543 277 +28 980
2016/10/10 514 297 -24 497
2016/10/09 538 794 -3 232
2016/10/08 542 026 +75 198
2016/10/07 466 828 -53 527
2016/10/06 520 355 +39 950
2016/10/05 480 405 -26 821
2016/10/04 507 226

WIDGET FOR YOUR SITE

DOMAINS WITH THE NEAREST RANK

Domain Rank
chorusonline.com 729 609
personal-tutors.co.uk 729 610
nationalgunrights.org 729 611
lacelosia.com 729 612
australianplantsonline.com.au 729 613
allwebdevhelp.com 729 614
bipa.hr 729 615
mochiring.net 729 616
globo.it 729 617
youhuim.com 729 618
designcouch.com 729 619

DOMAINS WITH THE NEAREST RANK BY TLD .com

Domain Rank
naharro.com 729 605
laopiniondealmeria.com 729 606
frankiesfunpark.com 729 607
chorusonline.com 729 609
lacelosia.com 729 612
allwebdevhelp.com 729 614
youhuim.com 729 618
designcouch.com 729 619
speedwayapplications.com 729 621
cardlanbus.com 729 626
choctawnation.com 729 627